Time;durP1;ratioP1;P1;durP2;ratioP2;P2;SDS_P1;SDS_P2;PMS_P1;PMS_P2;Temp;Humidity;BMP_temperature;BMP_pressure;BME280_temperature;BME280_humidity;BME280_pressure;Samples;Min_cycle;Max_cycle;Signal;HPM_P1;HPM_P2
2022/08/11 00:01:50;;;;;;;8.70;4.78;;;;;;;17.60;100.00;99985.09;1744699;81;21085;-67
2022/08/11 00:04:17;;;;;;;8.08;5.75;;;;;;;17.54;100.00;99983.53;1742303;81;21075;-66
2022/08/11 00:06:44;;;;;;;8.73;5.72;;;;;;;17.51;100.00;99980.03;1726176;82;21053;-67
2022/08/11 00:09:18;;;;;;;8.55;5.30;;;;;;;17.51;100.00;99973.97;1736238;81;21015;-67
2022/08/11 00:11:49;;;;;;;8.78;5.45;;;;;;;17.47;100.00;99969.39;1736989;81;21074;-66
2022/08/11 00:14:21;;;;;;;7.10;4.47;;;;;;;17.43;100.00;99968.41;1737868;81;21007;-65
2022/08/11 00:17:00;;;;;;;6.15;4.15;;;;;;;17.47;100.00;99976.27;1746490;81;21585;-67
2022/08/11 00:19:31;;;;;;;8.10;4.62;;;;;;;17.49;100.00;99973.48;1740046;81;21132;-65
2022/08/11 00:21:57;;;;;;;8.58;4.87;;;;;;;17.48;100.00;99973.78;1739354;81;21079;-66
2022/08/11 00:24:24;;;;;;;8.18;4.55;;;;;;;17.48;100.00;99967.72;1740906;81;21038;-66
2022/08/11 00:26:51;;;;;;;5.85;4.35;;;;;;;17.55;100.00;99983.80;1747337;80;21074;-66
2022/08/11 00:29:18;;;;;;;7.22;4.03;;;;;;;17.55;100.00;99989.30;1738872;81;21068;-67
2022/08/11 00:31:55;;;;;;;7.33;4.28;;;;;;;17.50;100.00;99998.48;1707931;83;21039;-66
2022/08/11 00:34:26;;;;;;;;;;;;;;;17.51;100.00;100008.38;1737831;81;20996;-67
2022/08/11 00:37:03;;;;;;;6.95;3.98;;;;;;;17.56;100.00;100001.95;1737879;81;20109;-65
2022/08/11 00:39:32;;;;;;;7.75;3.87;;;;;;;17.48;100.00;100000.75;1738889;81;21892;-66
2022/08/11 00:42:10;;;;;;;5.83;4.10;;;;;;;17.45;100.00;100012.94;1746630;81;21130;-67
2022/08/11 00:45:18;;;;;;;10.13;4.72;;;;;;;17.46;100.00;100028.33;1742908;81;21083;-67
2022/08/11 00:47:48;;;;;;;;;;;;;;;17.46;100.00;100021.45;1744208;81;21067;-67
2022/08/11 00:50:24;;;;;;;8.45;4.35;;;;;;;17.41;100.00;100008.61;1745210;81;20127;-66
2022/08/11 00:53:08;;;;;;;6.30;4.00;;;;;;;17.37;100.00;100006.23;1743278;82;21089;-66
2022/08/11 00:55:55;;;;;;;5.78;4.12;;;;;;;17.35;100.00;100002.42;1735603;81;21047;-66
2022/08/11 00:59:11;;;;;;;7.08;4.20;;;;;;;17.29;100.00;100002.27;1739020;81;21036;-67
2022/08/11 01:01:46;;;;;;;7.95;3.95;;;;;;;17.23;100.00;99988.94;1742831;81;21055;-67
2022/08/11 01:04:27;;;;;;;7.70;3.80;;;;;;;17.20;100.00;99986.81;1747118;81;21054;-66
2022/08/11 01:07:47;;;;;;;5.25;3.83;;;;;;;17.23;100.00;99978.75;1741921;81;21019;-67
2022/08/11 01:13:17;;;;;;;6.03;4.03;;;;;;;17.31;100.00;99982.71;1800750;78;22735;-66
2022/08/11 01:16:10;;;;;;;7.22;4.20;;;;;;;17.27;100.00;99989.95;1743653;81;21106;-68
2022/08/11 01:19:21;;;;;;;5.90;4.03;;;;;;;17.24;100.00;99989.20;1731825;81;21019;-67
2022/08/11 01:22:40;;;;;;;6.62;3.90;;;;;;;17.17;100.00;99974.50;1674992;82;21576;-67
2022/08/11 01:25:38;;;;;;;7.55;3.58;;;;;;;17.16;100.00;99968.73;1654369;84;21023;-66
2022/08/11 01:28:08;;;;;;;;;;;;;;;17.17;100.00;99972.30;1655698;85;21102;-66
2022/08/11 01:31:18;;;;;;;7.75;3.80;;;;;;;17.10;100.00;99961.73;1695975;83;20492;-66
2022/08/11 01:34:13;;;;;;;9.53;4.20;;;;;;;17.00;100.00;99963.34;1723947;81;21592;-66
2022/08/11 01:37:27;;;;;;;5.87;4.47;;;;;;;17.03;100.00;99968.77;1696738;82;21588;-67
2022/08/11 01:40:20;;;;;;;6.70;3.92;;;;;;;17.00;100.00;99960.59;1676213;84;21576;-67
2022/08/11 01:46:30;;;;;;;11.83;5.97;;;;;;;16.97;100.00;99957.64;1681770;84;21092;-68
2022/08/11 01:49:24;;;;;;;9.28;5.67;;;;;;;16.97;100.00;99963.92;1683217;84;21038;-68
2022/08/11 01:52:09;;;;;;;7.65;5.53;;;;;;;16.96;100.00;99954.07;1671389;84;21082;-68
2022/08/11 01:55:11;;;;;;;8.68;5.33;;;;;;;16.93;100.00;99954.69;1682315;84;21473;-68
2022/08/11 01:58:09;;;;;;;6.97;5.00;;;;;;;16.93;100.00;99947.23;1684534;84;21088;-66
2022/08/11 02:00:41;;;;;;;;;;;;;;;16.97;100.00;99955.67;1706103;83;21110;-67
2022/08/11 02:03:22;;;;;;;6.60;4.70;;;;;;;16.93;100.00;99949.19;1678093;84;20120;-66
2022/08/11 02:09:21;;;;;;;7.00;4.53;;;;;;;16.89;100.00;99947.62;1675795;84;21006;-66
2022/08/11 02:11:48;;;;;;;8.43;4.25;;;;;;;16.88;100.00;99950.66;1687953;82;21078;-66
2022/08/11 02:14:32;;;;;;;6.78;5.03;;;;;;;16.89;100.00;99956.42;1688153;84;21018;-67
2022/08/11 02:17:19;;;;;;;6.53;3.90;;;;;;;16.93;100.00;99958.81;1685795;82;21090;-66
2022/08/11 02:23:40;;;;;;;8.20;4.70;;;;;;;16.97;100.00;99969.42;1681897;84;21005;-66
2022/08/11 02:26:11;;;;;;;7.20;4.28;;;;;;;16.99;100.00;99965.00;1565825;90;21746;-67
2022/08/11 02:29:01;;;;;;;8.30;4.35;;;;;;;16.91;100.00;99955.55;1686598;82;20969;-66
2022/08/11 02:34:45;;;;;;;6.67;3.90;;;;;;;16.93;100.00;99962.35;1716232;82;21852;-67
2022/08/11 02:37:47;;;;;;;6.60;4.17;;;;;;;16.92;100.00;99966.80;1724915;81;21569;-66
2022/08/11 02:40:22;;;;;;;8.08;4.50;;;;;;;16.92;100.00;99969.55;1683135;84;21087;-67
2022/08/11 02:43:30;;;;;;;7.12;4.33;;;;;;;16.88;100.00;99969.36;1718174;82;21100;-66
2022/08/11 02:46:17;;;;;;;9.53;4.60;;;;;;;16.84;100.00;99966.96;1715016;81;21065;-66
2022/08/11 02:52:45;;;;;;;6.37;4.10;;;;;;;16.86;100.00;99965.30;1724241;82;21023;-65
2022/08/11 02:55:43;;;;;;;8.80;4.58;;;;;;;16.86;100.00;99964.70;1719998;82;21548;-65
2022/08/11 02:58:39;;;;;;;6.70;4.70;;;;;;;16.79;100.00;99956.65;1703720;82;21018;-66
2022/08/11 03:01:19;;;;;;;7.85;5.50;;;;;;;16.73;100.00;99949.61;1679202;84;21034;-67
2022/08/11 03:04:09;;;;;;;9.05;5.10;;;;;;;16.72;100.00;99947.41;1714865;82;21526;-68
2022/08/11 03:07:12;;;;;;;9.15;4.87;;;;;;;16.70;100.00;99941.42;1681200;84;21648;-65
2022/08/11 03:10:12;;;;;;;7.35;4.30;;;;;;;16.68;100.00;99946.98;1694994;82;21559;-66
2022/08/11 03:18:57;;;;;;;9.00;5.90;;;;;;;16.58;100.00;99956.23;1721235;82;21042;-66
2022/08/11 03:21:31;;;;;;;6.50;4.53;;;;;;;16.64;100.00;99952.28;1721167;82;21299;-66
2022/08/11 03:24:21;;;;;;;10.05;4.92;;;;;;;16.68;100.00;99941.48;1724967;82;21043;-67
2022/08/11 03:26:59;;;;;;;8.78;6.05;;;;;;;16.69;100.00;99943.91;1699146;82;21043;-66
2022/08/11 03:29:48;;;;;;;17.85;11.97;;;;;;;16.71;100.00;99934.00;1720408;82;21570;-66
2022/08/11 03:32:29;;;;;;;12.47;8.85;;;;;;;16.72;100.00;99932.88;1722483;82;20999;-65
2022/08/11 03:35:00;;;;;;;10.00;7.90;;;;;;;16.72;100.00;99937.80;1707190;82;20967;-67
2022/08/11 03:37:52;;;;;;;11.83;8.33;;;;;;;16.70;100.00;99932.36;1715616;83;21010;-66
2022/08/11 03:43:52;;;;;;;9.55;5.95;;;;;;;16.73;100.00;99934.48;1702497;82;20999;-66
2022/08/11 03:46:46;;;;;;;6.22;4.80;;;;;;;16.71;100.00;99932.63;1717145;82;21561;-66
2022/08/11 03:49:34;;;;;;;9.25;4.55;;;;;;;16.68;100.00;99928.56;1722342;82;21034;-68
2022/08/11 03:52:48;;;;;;;6.28;4.25;;;;;;;16.65;100.00;99926.40;1722125;82;21142;-66
2022/08/11 03:56:11;;;;;;;6.33;4.67;;;;;;;16.71;100.00;99921.62;1721660;82;21536;-66
2022/08/11 03:58:52;;;;;;;5.60;4.00;;;;;;;16.65;100.00;99920.90;1712880;83;21176;-66
2022/08/11 04:01:56;;;;;;;10.08;4.25;;;;;;;16.67;100.00;99921.42;1654546;82;21558;-66
2022/08/11 04:04:45;;;;;;;7.17;3.98;;;;;;;16.67;100.00;99928.85;1722768;83;21016;-65
2022/08/11 04:07:34;;;;;;;4.85;3.90;;;;;;;16.61;100.00;99930.91;1683029;85;21093;-67
2022/08/11 04:10:25;;;;;;;5.53;3.80;;;;;;;16.60;100.00;99931.20;1721170;82;21496;-66
2022/08/11 04:13:15;;;;;;;6.25;3.95;;;;;;;16.64;100.00;99930.84;1704524;83;21127;-67
2022/08/11 04:16:30;;;;;;;7.35;3.50;;;;;;;16.68;100.00;99936.80;1706247;82;21636;-66
2022/08/11 04:19:23;;;;;;;4.42;3.50;;;;;;;16.73;100.00;99934.48;1700616;83;21647;-67
2022/08/11 04:22:33;;;;;;;8.43;3.70;;;;;;;16.77;100.00;99932.20;1680352;84;21632;-66
2022/08/11 04:25:57;;;;;;;6.05;3.22;;;;;;;16.83;100.00;99925.46;1658971;85;21002;-66
2022/08/11 04:29:02;;;;;;;5.70;3.45;;;;;;;16.93;100.00;99918.36;1704290;83;21616;-67
2022/08/11 04:31:54;;;;;;;6.65;3.30;;;;;;;16.96;100.00;99923.82;1702538;82;21142;-68
2022/08/11 04:34:35;;;;;;;5.30;3.67;;;;;;;17.00;100.00;99931.70;1700533;83;20995;-65
2022/08/11 04:37:34;;;;;;;5.05;3.20;;;;;;;17.07;100.00;99933.47;1711209;82;21043;-66
2022/08/11 04:40:35;;;;;;;8.38;3.17;;;;;;;17.12;100.00;99929.77;1708454;82;21486;-67
2022/08/11 04:43:43;;;;;;;5.25;2.90;;;;;;;17.14;100.00;99924.79;1714057;83;21075;-67
2022/08/11 04:46:33;;;;;;;6.05;3.50;;;;;;;17.25;100.00;99919.31;1682153;85;21075;-67
2022/08/11 05:02:20;;;;;;;7.30;3.40;;;;;;;17.52;100.00;99888.09;1716081;83;21012;-66
2022/08/11 05:05:29;;;;;;;4.78;2.90;;;;;;;17.49;100.00;99887.34;1717328;83;21523;-68
2022/08/11 05:08:30;;;;;;;5.42;3.22;;;;;;;17.49;100.00;99890.92;1710380;82;21063;-69
2022/08/11 05:11:37;;;;;;;4.85;2.75;;;;;;;17.50;100.00;99894.48;1716086;82;21610;-65
2022/08/11 05:36:52;;;;;;;4.78;3.40;;;;;;;17.75;100.00;99926.88;1729150;81;21042;-67
2022/08/11 05:56:31;;;;;;;5.40;4.12;;;;;;;17.89;100.00;99945.52;1730334;83;21094;-69
2022/08/11 05:58:58;;;;;;;7.33;3.72;;;;;;;17.96;100.00;99940.96;1694516;84;21561;-65
2022/08/11 06:01:29;;;;;;;8.38;4.37;;;;;;;17.93;100.00;99947.89;1664238;85;21066;-64
2022/08/11 06:04:13;;;;;;;6.08;3.60;;;;;;;17.94;100.00;99948.15;1690906;84;21569;-65
2022/08/11 06:07:07;;;;;;;10.48;3.80;;;;;;;17.96;100.00;99954.14;1678626;84;21049;-66
2022/08/11 06:09:46;;;;;;;6.42;4.15;;;;;;;18.05;100.00;99962.47;1666517;84;21034;-66
2022/08/11 06:12:20;;;;;;;5.55;3.77;;;;;;;18.07;100.00;99952.75;1695088;84;21227;-66
2022/08/11 06:14:48;;;;;;;5.33;4.10;;;;;;;18.03;100.00;99939.36;1699010;83;21030;-67
2022/08/11 06:17:24;;;;;;;6.97;3.80;;;;;;;18.09;100.00;99936.73;1707317;82;21270;-67
2022/08/11 06:19:52;;;;;;;7.70;4.22;;;;;;;18.13;100.00;99931.41;1697706;82;20999;-66
2022/08/11 06:22:22;;;;;;;5.08;3.87;;;;;;;18.12;100.00;99933.34;1725731;82;21420;-66
2022/08/11 06:24:57;;;;;;;6.97;4.00;;;;;;;18.15;100.00;99942.91;1724753;83;21059;-66
2022/08/11 06:27:26;;;;;;;6.08;3.98;;;;;;;18.20;100.00;99967.59;1688978;83;21626;-66
2022/08/11 06:29:53;;;;;;;6.50;3.95;;;;;;;18.20;100.00;99975.29;1721499;81;20995;-66
2022/08/11 06:32:22;;;;;;;7.62;3.80;;;;;;;18.19;100.00;99977.79;1730724;81;21047;-66
2022/08/11 06:35:18;;;;;;;6.95;3.83;;;;;;;18.17;100.00;99986.95;1727327;80;20987;-65
2022/08/11 06:38:15;;;;;;;5.28;4.00;;;;;;;18.17;100.00;99993.84;1728267;81;21036;-66
2022/08/11 06:44:17;;;;;;;6.03;3.70;;;;;;;18.12;100.00;99994.52;1729529;81;21056;-67
2022/08/11 06:46:47;;;;;;;8.85;3.87;;;;;;;18.11;100.00;100000.58;1727231;81;21050;-67
2022/08/11 06:52:12;;;;;;;7.83;3.72;;;;;;;18.15;100.00;99994.70;1681152;83;21053;-68
2022/08/11 06:54:44;;;;;;;6.90;4.30;;;;;;;18.16;100.00;99994.14;1728396;81;20997;-67
2022/08/11 07:03:02;;;;;;;5.78;3.95;;;;;;;18.20;100.00;99989.06;1724578;81;20991;-67
2022/08/11 07:05:53;;;;;;;7.05;4.87;;;;;;;18.26;100.00;99983.66;1724034;81;21551;-68
2022/08/11 07:17:48;;;;;;;6.22;4.45;;;;;;;18.31;100.00;100002.83;1712859;82;20987;-66
2022/08/11 07:31:20;;;;;;;6.78;4.80;;;;;;;18.22;100.00;99991.48;1704615;82;21087;-67
2022/08/11 07:33:53;;;;;;;7.70;5.17;;;;;;;18.20;100.00;99993.20;1716606;82;21027;-67
2022/08/11 07:36:19;;;;;;;8.23;5.58;;;;;;;18.21;100.00;99989.30;1720250;81;21046;-67
2022/08/11 07:38:50;;;;;;;;;;;;;;;18.22;100.00;99985.98;1724863;82;21015;-67
2022/08/11 07:41:19;;;;;;;7.45;6.05;;;;;;;18.24;100.00;99987.87;1714341;82;20109;-68
2022/08/11 07:43:50;;;;;;;10.20;5.42;;;;;;;18.12;100.00;99969.16;1716595;82;21047;-68
2022/08/11 07:54:34;;;;;;;6.28;5.30;;;;;;;18.07;100.00;99905.92;1716821;82;21042;-67
2022/08/11 08:19:15;;;;;;;7.13;4.97;;;;;;;18.69;100.00;99936.19;1732081;82;21067;-68
2022/08/11 08:21:41;;;;;;;9.80;5.40;;;;;;;18.79;100.00;99951.05;1709055;81;21068;-67
2022/08/11 08:24:08;;;;;;;7.35;4.80;;;;;;;18.94;100.00;99945.09;1672918;83;21537;-67
2022/08/11 08:32:05;;;;;;;6.40;4.40;;;;;;;19.20;100.00;99937.63;1677009;84;21087;-66
2022/08/11 08:34:32;;;;;;;7.08;4.75;;;;;;;19.34;100.00;99935.53;1682796;84;21535;-65
2022/08/11 08:36:58;;;;;;;8.10;4.87;;;;;;;19.37;100.00;99941.80;1681983;84;21042;-66
2022/08/11 08:39:25;;;;;;;5.90;4.20;;;;;;;19.44;100.00;99945.48;1632037;85;21061;-67
2022/08/11 08:41:56;;;;;;;7.87;4.40;;;;;;;19.59;100.00;99960.75;1681873;84;21063;-67
2022/08/11 08:44:23;;;;;;;3.58;3.25;;;;;;;19.67;100.00;99984.20;1676541;84;21014;-67
2022/08/11 08:46:55;;;;;;;7.12;3.72;;;;;;;19.76;100.00;99978.68;1683193;84;21063;-67
2022/08/11 08:49:27;;;;;;;4.45;3.40;;;;;;;19.80;100.00;99966.62;1681795;84;21095;-67
2022/08/11 08:51:54;;;;;;;4.35;3.92;;;;;;;19.77;100.00;99955.42;1676525;84;21075;-66
2022/08/11 08:54:26;;;;;;;7.35;4.22;;;;;;;19.72;100.00;99950.09;1670792;84;21534;-66
2022/08/11 08:56:54;;;;;;;5.40;3.75;;;;;;;19.70;100.00;99960.63;1684795;84;21014;-66
2022/08/11 08:59:23;;;;;;;5.03;3.80;;;;;;;19.76;100.00;99962.11;1682635;84;21063;-65
2022/08/11 09:01:59;;;;;;;6.65;4.37;;;;;;;19.81;100.00;99977.11;1672560;84;21574;-66
2022/08/11 09:04:28;;;;;;;9.05;4.37;;;;;;;19.77;100.00;99978.33;1665674;84;21010;-66
2022/08/11 09:06:58;;;;;;;5.20;3.67;;;;;;;19.73;100.00;99982.09;1686977;84;21063;-66
2022/08/11 09:09:25;;;;;;;6.35;3.98;;;;;;;19.70;100.00;99986.87;1683682;84;21039;-66
2022/08/11 09:11:54;;;;;;;7.85;4.37;;;;;;;19.72;100.00;99985.42;1665329;84;21581;-67
2022/08/11 09:14:59;;;;;;;5.75;4.35;;;;;;;19.69;100.00;99988.03;1665776;84;21565;-66
2022/08/11 09:16:57;;;;;;;4.78;4.28;;;;;;;19.66;100.00;99981.19;1654853;85;21066;-66
2022/08/11 09:19:24;;;;;;;4.30;3.90;;;;;;;19.72;100.00;99994.27;1660494;85;21609;-67
2022/08/11 09:27:21;;;;;;;6.33;3.80;;;;;;;19.81;100.00;100011.64;1726603;82;21140;-66
2022/08/11 09:29:47;;;;;;;7.17;4.20;;;;;;;19.96;100.00;100013.09;1724258;82;21026;-65
2022/08/11 09:32:20;;;;;;;5.53;3.95;;;;;;;19.97;100.00;100008.63;1729698;82;21011;-66
2022/08/11 09:34:50;;;;;;;5.08;3.42;;;;;;;19.96;100.00;99986.28;1704971;82;21062;-66
2022/08/11 09:45:33;;;;;;;5.58;3.83;;;;;;;20.28;100.00;99984.94;1715385;80;21083;-68
2022/08/11 09:48:04;;;;;;;4.10;3.50;;;;;;;20.44;100.00;99981.07;1727297;82;21017;-68
2022/08/11 09:50:29;;;;;;;4.97;3.40;;;;;;;20.62;100.00;99986.74;1726716;82;21031;-68
2022/08/11 09:52:55;;;;;;;4.05;3.55;;;;;;;20.72;100.00;99973.95;1725442;82;21451;-67
2022/08/11 09:55:21;;;;;;;4.53;3.55;;;;;;;20.62;100.00;99970.15;1721786;82;21514;-68
2022/08/11 10:00:39;;;;;;;6.50;3.77;;;;;;;20.61;100.00;99967.98;1723921;82;21443;-67
2022/08/11 10:03:15;;;;;;;4.85;3.65;;;;;;;20.55;100.00;99976.77;1717811;82;20961;-67
2022/08/11 10:08:42;;;;;;;4.33;3.92;;;;;;;20.65;100.00;99979.19;1704581;82;21082;-66
2022/08/11 10:11:13;;;;;;;5.28;4.30;;;;;;;20.68;100.00;99978.52;1718026;81;21113;-66
2022/08/11 10:16:33;;;;;;;5.83;4.22;;;;;;;20.48;100.00;99964.84;1711751;81;21536;-66
2022/08/11 10:19:01;;;;;;;4.40;4.00;;;;;;;20.41;100.00;99970.08;1729099;81;21568;-66
2022/08/11 10:26:48;;;;;;;5.92;4.35;;;;;;;20.24;100.00;99958.48;1727585;81;21088;-66
2022/08/11 10:27:02;;;;;;;4.85;3.80;;;;;;;20.03;100.00;99960.34;1691446;83;21024;-68
2022/08/11 10:35:08;;;;;;;5.35;4.50;;;;;;;19.69;100.00;99969.52;1714237;81;21054;-68
2022/08/11 10:37:35;;;;;;;5.95;4.37;;;;;;;19.63;100.00;99968.59;1738968;81;21022;-67
2022/08/11 10:40:04;;;;;;;9.20;4.30;;;;;;;19.54;100.00;99967.80;1727189;81;21546;-67
2022/08/11 10:48:01;;;;;;;5.97;4.53;;;;;;;19.50;100.00;99962.12;1678624;83;21020;-66
2022/08/11 10:58:51;;;;;;;6.30;4.85;;;;;;;19.72;100.00;99952.84;1718455;81;21007;-67
2022/08/11 11:01:26;;;;;;;5.42;4.28;;;;;;;19.81;100.00;99959.97;1723382;82;21701;-68
2022/08/11 11:04:10;;;;;;;7.10;4.72;;;;;;;19.96;100.00;99949.55;1725321;81;21623;-66
2022/08/11 11:07:03;;;;;;;7.45;4.03;;;;;;;20.04;100.00;99944.01;1709349;81;21030;-66
2022/08/11 11:09:33;;;;;;;5.15;4.17;;;;;;;20.12;100.00;99942.37;1722895;81;21013;-66
2022/08/11 11:17:55;;;;;;;6.12;4.30;;;;;;;20.53;100.00;99947.27;1717326;82;21540;-66
2022/08/11 11:20:29;;;;;;;5.17;4.17;;;;;;;20.62;100.00;99936.95;1702064;82;21634;-66
2022/08/11 11:23:06;;;;;;;4.28;3.80;;;;;;;20.69;100.00;99940.83;1725911;82;21517;-66
2022/08/11 11:26:05;;;;;;;4.70;3.80;;;;;;;20.78;100.00;99933.88;1713590;82;21550;-66
2022/08/11 11:28:50;;;;;;;4.92;3.80;;;;;;;20.83;100.00;99926.78;1711397;82;21014;-65
2022/08/11 11:32:03;;;;;;;4.45;3.90;;;;;;;20.89;100.00;99914.36;1728798;82;21089;-66
2022/08/11 11:35:03;;;;;;;4.70;3.90;;;;;;;21.01;100.00;99910.27;1714058;83;21045;-66
2022/08/11 11:37:34;;;;;;;4.42;3.67;;;;;;;21.10;100.00;99916.60;1707896;82;21004;-66
2022/08/11 11:40:00;;;;;;;4.97;3.70;;;;;;;21.25;100.00;99902.16;1722956;82;21086;-66
2022/08/11 11:42:27;;;;;;;4.70;3.65;;;;;;;21.35;100.00;99898.16;1711735;82;21043;-66
2022/08/11 11:44:54;;;;;;;4.55;3.60;;;;;;;21.43;100.00;99891.73;1720074;82;21018;-66
2022/08/11 11:47:21;;;;;;;4.20;3.80;;;;;;;21.46;100.00;99895.21;1716770;82;21065;-66
2022/08/11 11:49:48;;;;;;;7.45;3.90;;;;;;;21.50;100.00;99884.27;1681927;83;21575;-66
2022/08/11 11:52:17;;;;;;;4.87;3.95;;;;;;;21.54;100.00;99878.28;1724521;82;21018;-67
2022/08/11 11:54:45;;;;;;;5.25;3.85;;;;;;;21.63;100.00;99884.53;1723049;82;21099;-67
2022/08/11 12:02:41;;;;;;;6.10;4.03;;;;;;;21.99;100.00;99898.52;1735270;82;20939;-66
2022/08/11 12:05:09;;;;;;;4.97;3.98;;;;;;;22.04;100.00;99912.71;1731581;80;21018;-66
2022/08/11 12:08:22;;;;;;;4.87;4.37;;;;;;;22.05;100.00;99898.52;1718130;82;21080;-66
2022/08/11 12:10:05;;;;;;;7.25;4.30;;;;;;;22.15;100.00;99906.95;1680546;82;21063;-67
2022/08/11 12:15:18;;;;;;;5.53;3.98;;;;;;;22.33;100.00;99897.27;1721043;82;21008;-66
2022/08/11 12:17:45;;;;;;;6.17;3.98;;;;;;;22.39;100.00;99891.72;1717992;82;21004;-67
2022/08/11 12:20:13;;;;;;;4.70;3.87;;;;;;;22.41;100.00;99896.94;1728893;82;21102;-66
2022/08/11 12:28:10;;;;;;;5.22;3.75;;;;;;;22.41;100.00;99894.16;1716279;82;21292;-66
2022/08/11 12:30:39;;;;;;;4.80;4.30;;;;;;;22.42;100.00;99908.27;1706583;82;21090;-67
2022/08/11 12:33:05;;;;;;;5.62;4.10;;;;;;;22.48;100.00;99901.33;1724003;82;21480;-66
2022/08/11 12:35:34;;;;;;;6.60;4.20;;;;;;;22.59;100.00;99902.48;1714940;82;21061;-67
2022/08/11 12:38:01;;;;;;;5.03;4.10;;;;;;;22.75;100.00;99900.07;1713109;82;20991;-66
2022/08/11 12:45:59;;;;;;;5.33;4.45;;;;;;;23.00;100.00;99902.22;1713453;82;21043;-66
2022/08/11 12:54:16;;;;;;;5.75;4.05;;;;;;;22.78;100.00;99909.08;1716365;82;21032;-65
2022/08/11 13:05:04;;;;;;;;;;;;;;;22.81;100.00;99894.50;1725790;82;21021;-66
2022/08/11 13:07:32;;;;;;;7.05;4.60;;;;;;;22.87;100.00;99899.83;1698634;82;20146;-66
2022/08/11 13:10:04;;;;;;;6.50;4.85;;;;;;;22.90;100.00;99903.28;1711440;82;21545;-66
2022/08/11 13:12:47;;;;;;;6.65;4.45;;;;;;;22.92;100.00;99900.38;1712421;84;21836;-66
2022/08/11 13:15:19;;;;;;;6.65;4.60;;;;;;;23.00;100.00;99911.94;1720436;81;21468;-66
2022/08/11 13:17:48;;;;;;;5.50;5.00;;;;;;;23.20;100.00;99901.23;1727954;81;21062;-65
2022/08/11 13:20:20;;;;;;;6.67;4.65;;;;;;;23.26;100.00;99910.96;1729962;81;21042;-66
2022/08/11 13:22:49;;;;;;;5.40;4.85;;;;;;;23.28;100.00;99920.31;1732060;81;21002;-66
2022/08/11 13:25:18;;;;;;;5.67;4.90;;;;;;;23.30;100.00;99908.29;1735717;80;21049;-66
2022/08/11 13:29:34;;;;;;;5.65;4.78;;;;;;;23.47;100.00;99908.02;1797811;78;23213;-66
2022/08/11 13:32:02;;;;;;;8.40;5.62;;;;;;;23.57;100.00;99906.70;1744086;80;21008;-65
2022/08/11 13:34:30;;;;;;;6.85;4.85;;;;;;;23.57;100.00;99906.70;1732860;82;21046;-66
2022/08/11 13:37:00;;;;;;;6.10;5.05;;;;;;;23.87;100.00;99894.05;1739659;82;21570;-68
2022/08/11 13:39:30;;;;;;;6.53;5.72;;;;;;;23.87;100.00;99894.05;1738375;82;21090;-67
2022/08/11 13:41:58;;;;;;;5.55;4.97;;;;;;;23.84;100.00;99910.06;1736305;82;21027;-67
2022/08/11 13:44:26;;;;;;;6.10;5.08;;;;;;;23.84;100.00;99910.06;1738128;82;21011;-67
2022/08/11 13:46:56;;;;;;;6.20;5.60;;;;;;;23.61;100.00;99911.78;1739364;82;21070;-67
2022/08/11 13:49:23;;;;;;;6.08;5.30;;;;;;;23.61;100.00;99911.78;1738815;82;21038;-66
2022/08/11 13:51:50;;;;;;;7.33;5.42;;;;;;;23.49;100.00;99924.35;1731444;82;21062;-68
2022/08/11 13:54:23;;;;;;;6.62;5.45;;;;;;;23.49;100.00;99924.35;1742350;82;21050;-68
2022/08/11 13:56:53;;;;;;;6.28;5.40;;;;;;;23.39;100.00;99912.30;1726855;82;21593;-68
2022/08/11 13:59:21;;;;;;;6.83;4.97;;;;;;;23.28;100.00;99912.80;1730970;82;21540;-67
2022/08/11 14:01:54;;;;;;;7.33;5.30;;;;;;;23.37;100.00;99920.19;1727004;82;21078;-68
2022/08/11 14:04:39;;;;;;;6.65;5.42;;;;;;;23.38;100.00;99924.02;1730151;82;21043;-68
2022/08/11 14:07:08;;;;;;;6.67;5.30;;;;;;;23.38;100.00;99924.02;1731193;82;21097;-66
2022/08/11 14:09:38;;;;;;;7.90;5.42;;;;;;;23.43;100.00;99923.77;1729251;82;21141;-65
2022/08/11 14:15:08;;;;;;;7.50;5.87;;;;;;;23.70;100.00;99918.01;1732717;82;21080;-66
2022/08/11 14:17:38;;;;;;;7.08;5.10;;;;;;;23.78;100.00;99910.07;1671581;84;21050;-66
2022/08/11 14:20:07;;;;;;;7.40;5.15;;;;;;;23.79;100.00;99911.70;1702683;84;20983;-66
2022/08/11 14:22:33;;;;;;;6.53;5.37;;;;;;;23.79;100.00;99911.70;1709248;84;21368;-65
2022/08/11 14:25:07;;;;;;;7.03;5.90;;;;;;;23.65;100.00;99897.41;1698021;84;21050;-66
2022/08/11 14:27:33;;;;;;;6.83;5.80;;;;;;;23.65;100.00;99897.41;1687743;84;21050;-67
2022/08/11 14:30:00;;;;;;;7.45;5.70;;;;;;;23.63;100.00;99892.19;1694779;84;20993;-66
2022/08/11 14:32:26;;;;;;;6.17;5.55;;;;;;;23.57;100.00;99894.20;1694956;84;20990;-67
2022/08/11 14:34:53;;;;;;;6.97;5.47;;;;;;;23.52;100.00;99900.84;1697882;84;21071;-66
2022/08/11 14:37:21;;;;;;;6.17;5.58;;;;;;;23.52;100.00;99900.84;1705049;84;21477;-67
2022/08/11 14:39:59;;;;;;;9.63;5.70;;;;;;;23.52;100.00;99900.84;1698748;84;21022;-66
2022/08/11 14:48:00;;;;;;;9.20;5.90;;;;;;;23.52;100.00;99900.84;1689932;83;21065;-66
2022/08/11 14:50:28;;;;;;;6.20;5.60;;;;;;;23.48;100.00;99903.28;1675564;84;21038;-66
2022/08/11 14:53:06;;;;;;;6.97;5.90;;;;;;;23.48;100.00;99903.28;1682935;84;21545;-66
2022/08/11 14:58:24;;;;;;;10.03;6.05;;;;;;;23.34;100.00;99895.89;1693990;84;21038;-66
2022/08/11 15:00:59;;;;;;;6.55;5.83;;;;;;;23.29;100.00;99896.94;1693940;84;21114;-66
2022/08/11 15:03:29;;;;;;;7.65;5.90;;;;;;;23.19;100.00;99891.31;1694682;84;21141;-66
2022/08/11 15:05:58;;;;;;;7.10;6.40;;;;;;;23.14;100.00;99897.09;1669690;84;21077;-67
2022/08/11 15:14:06;;;;;;;7.25;5.90;;;;;;;23.15;100.00;99903.47;1676173;84;21034;-66
2022/08/11 15:19:19;;;;;;;8.35;6.10;;;;;;;23.15;100.00;99896.52;1704754;84;20982;-66
2022/08/11 15:24:34;;;;;;;6.83;6.12;;;;;;;23.28;100.00;99898.09;1660080;85;21486;-66
2022/08/11 15:38:00;;;;;;;8.43;6.25;;;;;;;23.16;100.00;99905.91;1658681;85;21077;-66
2022/08/11 15:46:24;;;;;;;8.00;6.65;;;;;;;23.08;100.00;99906.03;1544755;91;21110;-68
2022/08/11 15:49:04;;;;;;;8.80;6.50;;;;;;;23.00;100.00;99905.58;1631605;85;21100;-66
2022/08/11 15:51:38;;;;;;;8.85;6.97;;;;;;;22.97;100.00;99898.77;1633405;87;21504;-67
2022/08/11 15:54:14;;;;;;;8.98;6.50;;;;;;;22.93;100.00;99913.69;1668968;85;21085;-68
2022/08/11 15:56:43;;;;;;;9.00;6.50;;;;;;;22.85;100.00;99912.66;1661793;85;21124;-67
2022/08/11 16:04:36;;;;;;;6.95;6.25;;;;;;;22.81;100.00;99913.14;1680855;84;21026;-68
2022/08/11 16:07:12;;;;;;;6.80;6.05;;;;;;;22.76;100.00;99910.59;1691873;84;21585;-68
2022/08/11 16:09:48;;;;;;;7.35;6.45;;;;;;;22.73;100.00;99916.27;1687955;84;21014;-68
2022/08/11 16:12:21;;;;;;;8.35;6.40;;;;;;;22.68;100.00;99914.30;1688572;84;21030;-68
2022/08/11 16:17:41;;;;;;;8.58;6.47;;;;;;;22.63;100.00;99913.12;1690790;84;21010;-66
2022/08/11 16:20:08;;;;;;;8.38;6.45;;;;;;;22.66;100.00;99919.36;1695055;84;21020;-66
2022/08/11 16:22:46;;;;;;;8.90;7.00;;;;;;;22.71;100.00;99908.04;1703611;84;21005;-67
2022/08/11 16:25:17;;;;;;;10.28;7.97;;;;;;;22.72;100.00;99911.05;1708726;84;21054;-68
2022/08/11 16:27:46;;;;;;;9.45;7.50;;;;;;;22.66;100.00;99913.23;1707193;84;21018;-69
2022/08/11 16:30:15;;;;;;;10.50;8.13;;;;;;;22.65;100.00;99910.80;1705568;83;21312;-68
2022/08/11 16:32:51;;;;;;;8.08;7.30;;;;;;;22.67;100.00;99912.09;1718502;83;21031;-66
2022/08/11 16:40:51;;;;;;;9.17;7.60;;;;;;;22.61;100.00;99906.52;1680326;83;21046;-67
2022/08/11 16:48:52;;;;;;;8.93;7.83;;;;;;;22.53;100.00;99911.60;1701114;82;21035;-67
2022/08/11 16:51:19;;;;;;;11.60;7.12;;;;;;;22.48;100.00;99915.20;1698616;83;21050;-67
2022/08/11 16:53:47;;;;;;;7.55;6.75;;;;;;;22.49;100.00;99918.21;1704988;83;21554;-68
2022/08/11 16:56:16;;;;;;;8.60;7.70;;;;;;;22.51;100.00;99921.44;1700969;83;21597;-67
2022/08/11 17:01:29;;;;;;;8.90;7.20;;;;;;;22.43;100.00;99917.61;1695682;83;21119;-68
2022/08/11 17:16:05;;;;;;;8.40;6.72;;;;;;;22.35;100.00;99908.85;1696835;83;21011;-66
2022/08/11 17:17:40;;;;;;;12.85;8.30;;;;;;;22.37;100.00;99914.03;1706987;83;21054;-68
2022/08/11 17:20:08;;;;;;;8.98;8.03;;;;;;;22.36;100.00;99911.02;1709381;83;21019;-67
2022/08/11 17:25:23;;;;;;;9.97;8.30;;;;;;;22.27;100.00;99916.12;1694420;83;21083;-68